sensor_id;sensor_type;location;lat;lon;timestamp;P1;durP1;ratioP1;P2;durP2;ratioP2
57441;SDS011;43284;47.042;15.498;2024-02-15T00:00:37;4.15;;;2.03;;
57441;SDS011;43284;47.042;15.498;2024-02-15T00:03:03;5.22;;;1.85;;
57441;SDS011;43284;47.042;15.498;2024-02-15T00:05:33;5.97;;;2.38;;
57441;SDS011;43284;47.042;15.498;2024-02-15T00:08:02;5.47;;;2.35;;
57441;SDS011;43284;47.042;15.498;2024-02-15T00:10:28;3.35;;;1.73;;
57441;SDS011;43284;47.042;15.498;2024-02-15T00:12:53;4.78;;;2.15;;
57441;SDS011;43284;47.042;15.498;2024-02-15T00:15:19;3.40;;;2.20;;
57441;SDS011;43284;47.042;15.498;2024-02-15T00:17:44;5.65;;;2.60;;
57441;SDS011;43284;47.042;15.498;2024-02-15T00:20:12;8.18;;;3.00;;
57441;SDS011;43284;47.042;15.498;2024-02-15T00:22:38;5.90;;;2.03;;
57441;SDS011;43284;47.042;15.498;2024-02-15T00:25:06;4.07;;;2.08;;
57441;SDS011;43284;47.042;15.498;2024-02-15T00:27:34;4.35;;;1.90;;
57441;SDS011;43284;47.042;15.498;2024-02-15T00:30:03;3.28;;;1.65;;
57441;SDS011;43284;47.042;15.498;2024-02-15T00:32:30;4.90;;;1.95;;
57441;SDS011;43284;47.042;15.498;2024-02-15T00:34:56;7.50;;;2.08;;
57441;SDS011;43284;47.042;15.498;2024-02-15T00:37:24;7.32;;;1.90;;
57441;SDS011;43284;47.042;15.498;2024-02-15T00:39:50;4.15;;;1.95;;
57441;SDS011;43284;47.042;15.498;2024-02-15T00:42:15;3.33;;;1.88;;
57441;SDS011;43284;47.042;15.498;2024-02-15T00:44:47;3.67;;;1.83;;
57441;SDS011;43284;47.042;15.498;2024-02-15T00:47:13;6.22;;;2.08;;
57441;SDS011;43284;47.042;15.498;2024-02-15T00:49:43;3.53;;;1.77;;
57441;SDS011;43284;47.042;15.498;2024-02-15T00:52:09;7.15;;;1.88;;
57441;SDS011;43284;47.042;15.498;2024-02-15T00:54:35;5.35;;;1.60;;
57441;SDS011;43284;47.042;15.498;2024-02-15T00:57:04;3.78;;;2.15;;
57441;SDS011;43284;47.042;15.498;2024-02-15T00:59:29;4.13;;;1.70;;
57441;SDS011;43284;47.042;15.498;2024-02-15T01:01:55;4.75;;;1.92;;
57441;SDS011;43284;47.042;15.498;2024-02-15T01:04:20;5.15;;;1.80;;
57441;SDS011;43284;47.042;15.498;2024-02-15T01:06:46;7.30;;;2.30;;
57441;SDS011;43284;47.042;15.498;2024-02-15T01:09:17;2.50;;;1.70;;
57441;SDS011;43284;47.042;15.498;2024-02-15T01:11:43;6.90;;;2.05;;
57441;SDS011;43284;47.042;15.498;2024-02-15T01:14:12;3.72;;;1.58;;
57441;SDS011;43284;47.042;15.498;2024-02-15T01:16:47;3.90;;;1.52;;
57441;SDS011;43284;47.042;15.498;2024-02-15T01:19:12;3.50;;;1.73;;
57441;SDS011;43284;47.042;15.498;2024-02-15T01:21:40;5.00;;;2.08;;
57441;SDS011;43284;47.042;15.498;2024-02-15T01:24:08;4.40;;;1.55;;
57441;SDS011;43284;47.042;15.498;2024-02-15T01:26:33;3.50;;;1.75;;
57441;SDS011;43284;47.042;15.498;2024-02-15T01:28:59;3.90;;;1.90;;
57441;SDS011;43284;47.042;15.498;2024-02-15T01:31:27;9.13;;;2.08;;
57441;SDS011;43284;47.042;15.498;2024-02-15T01:33:56;4.95;;;1.73;;
57441;SDS011;43284;47.042;15.498;2024-02-15T01:36:22;3.55;;;1.98;;
57441;SDS011;43284;47.042;15.498;2024-02-15T01:38:51;6.90;;;2.00;;
57441;SDS011;43284;47.042;15.498;2024-02-15T01:41:17;8.48;;;2.53;;
57441;SDS011;43284;47.042;15.498;2024-02-15T01:43:45;6.22;;;1.90;;
57441;SDS011;43284;47.042;15.498;2024-02-15T01:46:11;4.78;;;1.83;;
57441;SDS011;43284;47.042;15.498;2024-02-15T01:48:37;4.18;;;1.90;;
57441;SDS011;43284;47.042;15.498;2024-02-15T01:51:05;4.55;;;1.63;;
57441;SDS011;43284;47.042;15.498;2024-02-15T01:53:32;3.55;;;1.75;;
57441;SDS011;43284;47.042;15.498;2024-02-15T01:55:58;6.03;;;2.10;;
57441;SDS011;43284;47.042;15.498;2024-02-15T01:58:25;4.15;;;2.10;;
57441;SDS011;43284;47.042;15.498;2024-02-15T02:00:52;6.15;;;1.77;;
57441;SDS011;43284;47.042;15.498;2024-02-15T02:03:21;4.70;;;2.30;;
57441;SDS011;43284;47.042;15.498;2024-02-15T02:05:46;6.50;;;2.33;;
57441;SDS011;43284;47.042;15.498;2024-02-15T02:08:12;3.60;;;1.95;;
57441;SDS011;43284;47.042;15.498;2024-02-15T02:10:38;5.05;;;2.13;;
57441;SDS011;43284;47.042;15.498;2024-02-15T02:13:04;5.40;;;2.03;;
57441;SDS011;43284;47.042;15.498;2024-02-15T02:15:33;7.93;;;2.42;;
57441;SDS011;43284;47.042;15.498;2024-02-15T02:18:00;4.70;;;2.30;;
57441;SDS011;43284;47.042;15.498;2024-02-15T02:20:26;4.07;;;2.05;;
57441;SDS011;43284;47.042;15.498;2024-02-15T02:22:53;4.95;;;1.92;;
57441;SDS011;43284;47.042;15.498;2024-02-15T02:25:27;4.30;;;1.77;;
57441;SDS011;43284;47.042;15.498;2024-02-15T02:27:58;8.45;;;2.00;;
57441;SDS011;43284;47.042;15.498;2024-02-15T02:30:24;3.67;;;1.95;;
57441;SDS011;43284;47.042;15.498;2024-02-15T02:32:55;6.43;;;1.92;;
57441;SDS011;43284;47.042;15.498;2024-02-15T02:35:24;3.30;;;1.75;;
57441;SDS011;43284;47.042;15.498;2024-02-15T02:37:53;4.10;;;2.10;;
57441;SDS011;43284;47.042;15.498;2024-02-15T02:40:19;7.88;;;1.98;;
57441;SDS011;43284;47.042;15.498;2024-02-15T02:42:55;4.45;;;1.83;;
57441;SDS011;43284;47.042;15.498;2024-02-15T02:45:21;3.03;;;1.60;;
57441;SDS011;43284;47.042;15.498;2024-02-15T02:47:51;3.63;;;2.00;;
57441;SDS011;43284;47.042;15.498;2024-02-15T02:50:17;3.20;;;1.60;;
57441;SDS011;43284;47.042;15.498;2024-02-15T02:52:43;3.55;;;1.80;;
57441;SDS011;43284;47.042;15.498;2024-02-15T02:55:09;4.97;;;1.95;;
57441;SDS011;43284;47.042;15.498;2024-02-15T02:57:36;4.57;;;2.25;;
57441;SDS011;43284;47.042;15.498;2024-02-15T03:00:03;6.55;;;3.28;;
57441;SDS011;43284;47.042;15.498;2024-02-15T03:02:41;7.35;;;2.88;;
57441;SDS011;43284;47.042;15.498;2024-02-15T03:05:10;6.93;;;2.95;;
57441;SDS011;43284;47.042;15.498;2024-02-15T03:07:37;4.25;;;2.67;;
57441;SDS011;43284;47.042;15.498;2024-02-15T03:10:07;6.78;;;2.00;;
57441;SDS011;43284;47.042;15.498;2024-02-15T03:12:37;4.63;;;2.10;;
57441;SDS011;43284;47.042;15.498;2024-02-15T03:15:04;1.58;;;1.48;;
57441;SDS011;43284;47.042;15.498;2024-02-15T03:17:37;5.68;;;2.00;;
57441;SDS011;43284;47.042;15.498;2024-02-15T03:20:05;3.63;;;1.95;;
57441;SDS011;43284;47.042;15.498;2024-02-15T03:22:36;4.35;;;1.80;;
57441;SDS011;43284;47.042;15.498;2024-02-15T03:25:03;7.15;;;2.20;;
57441;SDS011;43284;47.042;15.498;2024-02-15T03:27:33;5.20;;;2.47;;
57441;SDS011;43284;47.042;15.498;2024-02-15T03:30:00;6.80;;;2.25;;
57441;SDS011;43284;47.042;15.498;2024-02-15T03:32:27;2.65;;;2.05;;
57441;SDS011;43284;47.042;15.498;2024-02-15T03:34:53;2.10;;;1.60;;
57441;SDS011;43284;47.042;15.498;2024-02-15T03:37:19;5.00;;;1.88;;
57441;SDS011;43284;47.042;15.498;2024-02-15T03:39:46;4.75;;;2.55;;
57441;SDS011;43284;47.042;15.498;2024-02-15T03:42:12;4.47;;;2.00;;
57441;SDS011;43284;47.042;15.498;2024-02-15T03:44:37;3.75;;;1.95;;
57441;SDS011;43284;47.042;15.498;2024-02-15T03:47:04;4.28;;;2.20;;
57441;SDS011;43284;47.042;15.498;2024-02-15T03:49:30;4.88;;;2.22;;
57441;SDS011;43284;47.042;15.498;2024-02-15T03:51:57;6.25;;;2.78;;
57441;SDS011;43284;47.042;15.498;2024-02-15T03:54:24;6.07;;;2.55;;
57441;SDS011;43284;47.042;15.498;2024-02-15T03:56:50;5.18;;;2.08;;
57441;SDS011;43284;47.042;15.498;2024-02-15T03:59:21;9.48;;;2.60;;
57441;SDS011;43284;47.042;15.498;2024-02-15T04:04:17;4.45;;;2.58;;
57441;SDS011;43284;47.042;15.498;2024-02-15T04:06:43;5.40;;;2.40;;
57441;SDS011;43284;47.042;15.498;2024-02-15T04:09:08;5.07;;;2.15;;
57441;SDS011;43284;47.042;15.498;2024-02-15T04:11:35;9.15;;;2.30;;
57441;SDS011;43284;47.042;15.498;2024-02-15T04:14:03;4.05;;;2.10;;
57441;SDS011;43284;47.042;15.498;2024-02-15T04:16:28;13.38;;;2.85;;
57441;SDS011;43284;47.042;15.498;2024-02-15T04:18:55;5.05;;;2.60;;
57441;SDS011;43284;47.042;15.498;2024-02-15T04:21:24;4.85;;;2.47;;
57441;SDS011;43284;47.042;15.498;2024-02-15T04:23:49;5.88;;;2.30;;
57441;SDS011;43284;47.042;15.498;2024-02-15T04:26:17;9.05;;;2.60;;
57441;SDS011;43284;47.042;15.498;2024-02-15T04:28:44;6.88;;;2.40;;
57441;SDS011;43284;47.042;15.498;2024-02-15T04:31:13;5.22;;;1.85;;
57441;SDS011;43284;47.042;15.498;2024-02-15T04:33:39;9.45;;;3.95;;
57441;SDS011;43284;47.042;15.498;2024-02-15T04:36:05;8.15;;;3.40;;
57441;SDS011;43284;47.042;15.498;2024-02-15T04:38:32;9.23;;;3.65;;
57441;SDS011;43284;47.042;15.498;2024-02-15T04:41:00;5.68;;;2.60;;
57441;SDS011;43284;47.042;15.498;2024-02-15T04:43:26;6.47;;;2.75;;
57441;SDS011;43284;47.042;15.498;2024-02-15T04:45:52;5.72;;;2.70;;
57441;SDS011;43284;47.042;15.498;2024-02-15T04:48:17;6.00;;;2.55;;
57441;SDS011;43284;47.042;15.498;2024-02-15T04:50:44;4.53;;;2.22;;
57441;SDS011;43284;47.042;15.498;2024-02-15T04:53:10;5.57;;;3.03;;
57441;SDS011;43284;47.042;15.498;2024-02-15T04:55:36;12.23;;;3.08;;
57441;SDS011;43284;47.042;15.498;2024-02-15T04:58:02;7.68;;;2.60;;
57441;SDS011;43284;47.042;15.498;2024-02-15T05:00:29;7.72;;;3.28;;
57441;SDS011;43284;47.042;15.498;2024-02-15T05:02:55;8.23;;;2.80;;
57441;SDS011;43284;47.042;15.498;2024-02-15T05:05:21;5.90;;;2.78;;
57441;SDS011;43284;47.042;15.498;2024-02-15T05:07:47;5.50;;;2.65;;
57441;SDS011;43284;47.042;15.498;2024-02-15T05:10:14;5.70;;;3.03;;
57441;SDS011;43284;47.042;15.498;2024-02-15T05:12:41;4.88;;;2.55;;
57441;SDS011;43284;47.042;15.498;2024-02-15T05:15:08;10.00;;;2.65;;
57441;SDS011;43284;47.042;15.498;2024-02-15T05:17:40;4.97;;;2.33;;
57441;SDS011;43284;47.042;15.498;2024-02-15T05:20:07;3.90;;;2.38;;
57441;SDS011;43284;47.042;15.498;2024-02-15T05:22:37;6.85;;;2.63;;
57441;SDS011;43284;47.042;15.498;2024-02-15T05:25:04;11.80;;;2.70;;
57441;SDS011;43284;47.042;15.498;2024-02-15T05:27:31;7.20;;;2.80;;
57441;SDS011;43284;47.042;15.498;2024-02-15T05:29:56;6.32;;;3.83;;
57441;SDS011;43284;47.042;15.498;2024-02-15T05:32:22;10.40;;;5.25;;
57441;SDS011;43284;47.042;15.498;2024-02-15T05:34:48;14.23;;;5.70;;
57441;SDS011;43284;47.042;15.498;2024-02-15T05:37:14;11.77;;;6.82;;
57441;SDS011;43284;47.042;15.498;2024-02-15T05:39:40;12.13;;;6.32;;
57441;SDS011;43284;47.042;15.498;2024-02-15T05:42:06;12.02;;;6.18;;
57441;SDS011;43284;47.042;15.498;2024-02-15T05:44:35;16.13;;;7.32;;
57441;SDS011;43284;47.042;15.498;2024-02-15T05:47:01;8.55;;;5.10;;
57441;SDS011;43284;47.042;15.498;2024-02-15T05:49:26;13.80;;;5.85;;
57441;SDS011;43284;47.042;15.498;2024-02-15T05:51:52;9.00;;;4.35;;
57441;SDS011;43284;47.042;15.498;2024-02-15T05:54:21;7.75;;;3.17;;
57441;SDS011;43284;47.042;15.498;2024-02-15T05:56:50;6.00;;;3.22;;
57441;SDS011;43284;47.042;15.498;2024-02-15T05:59:18;8.02;;;3.85;;
57441;SDS011;43284;47.042;15.498;2024-02-15T06:01:45;6.65;;;3.45;;
57441;SDS011;43284;47.042;15.498;2024-02-15T06:04:13;6.10;;;2.95;;
57441;SDS011;43284;47.042;15.498;2024-02-15T06:06:45;6.03;;;3.20;;
57441;SDS011;43284;47.042;15.498;2024-02-15T06:09:14;8.20;;;3.38;;
57441;SDS011;43284;47.042;15.498;2024-02-15T06:11:42;7.38;;;3.10;;
57441;SDS011;43284;47.042;15.498;2024-02-15T06:14:10;7.20;;;3.35;;
57441;SDS011;43284;47.042;15.498;2024-02-15T06:16:41;5.32;;;3.03;;
57441;SDS011;43284;47.042;15.498;2024-02-15T06:19:08;6.65;;;3.13;;
57441;SDS011;43284;47.042;15.498;2024-02-15T06:21:34;8.30;;;3.08;;
57441;SDS011;43284;47.042;15.498;2024-02-15T06:23:59;6.13;;;3.15;;
57441;SDS011;43284;47.042;15.498;2024-02-15T06:26:25;10.75;;;4.07;;
57441;SDS011;43284;47.042;15.498;2024-02-15T06:28:50;7.93;;;3.20;;
57441;SDS011;43284;47.042;15.498;2024-02-15T06:31:34;8.85;;;2.80;;
57441;SDS011;43284;47.042;15.498;2024-02-15T06:37:02;7.55;;;2.75;;
57441;SDS011;43284;47.042;15.498;2024-02-15T06:39:46;7.28;;;2.72;;
57441;SDS011;43284;47.042;15.498;2024-02-15T06:42:16;8.05;;;3.25;;
57441;SDS011;43284;47.042;15.498;2024-02-15T06:44:47;5.95;;;2.95;;
57441;SDS011;43284;47.042;15.498;2024-02-15T06:47:13;5.90;;;2.92;;
57441;SDS011;43284;47.042;15.498;2024-02-15T06:49:42;7.28;;;3.47;;
57441;SDS011;43284;47.042;15.498;2024-02-15T06:52:11;9.93;;;4.18;;
57441;SDS011;43284;47.042;15.498;2024-02-15T06:54:40;12.02;;;4.80;;
57441;SDS011;43284;47.042;15.498;2024-02-15T06:57:06;10.68;;;4.18;;
57441;SDS011;43284;47.042;15.498;2024-02-15T06:59:32;15.38;;;4.40;;
57441;SDS011;43284;47.042;15.498;2024-02-15T07:01:59;12.75;;;4.25;;
57441;SDS011;43284;47.042;15.498;2024-02-15T07:04:28;13.05;;;4.25;;
57441;SDS011;43284;47.042;15.498;2024-02-15T07:06:57;11.30;;;3.97;;
57441;SDS011;43284;47.042;15.498;2024-02-15T07:09:24;14.02;;;4.43;;
57441;SDS011;43284;47.042;15.498;2024-02-15T07:11:50;16.60;;;5.03;;
57441;SDS011;43284;47.042;15.498;2024-02-15T07:14:16;11.27;;;5.18;;
57441;SDS011;43284;47.042;15.498;2024-02-15T07:16:45;12.32;;;4.13;;
57441;SDS011;43284;47.042;15.498;2024-02-15T07:19:12;18.20;;;5.30;;
57441;SDS011;43284;47.042;15.498;2024-02-15T07:21:41;13.43;;;5.00;;
57441;SDS011;43284;47.042;15.498;2024-02-15T07:24:07;13.30;;;5.10;;
57441;SDS011;43284;47.042;15.498;2024-02-15T07:26:34;10.63;;;3.72;;
57441;SDS011;43284;47.042;15.498;2024-02-15T07:29:01;10.43;;;3.83;;
57441;SDS011;43284;47.042;15.498;2024-02-15T07:31:30;20.83;;;3.78;;
57441;SDS011;43284;47.042;15.498;2024-02-15T07:33:58;10.15;;;4.35;;
57441;SDS011;43284;47.042;15.498;2024-02-15T07:36:23;12.20;;;4.57;;
57441;SDS011;43284;47.042;15.498;2024-02-15T07:38:52;10.93;;;4.72;;
57441;SDS011;43284;47.042;15.498;2024-02-15T07:41:22;13.00;;;6.03;;
57441;SDS011;43284;47.042;15.498;2024-02-15T07:43:50;15.13;;;4.90;;
57441;SDS011;43284;47.042;15.498;2024-02-15T07:46:20;19.02;;;5.00;;
57441;SDS011;43284;47.042;15.498;2024-02-15T07:48:46;20.42;;;6.55;;
57441;SDS011;43284;47.042;15.498;2024-02-15T07:51:13;24.65;;;9.32;;
57441;SDS011;43284;47.042;15.498;2024-02-15T07:53:40;15.68;;;6.18;;
57441;SDS011;43284;47.042;15.498;2024-02-15T07:56:06;19.63;;;5.60;;
57441;SDS011;43284;47.042;15.498;2024-02-15T07:58:31;24.92;;;7.90;;
57441;SDS011;43284;47.042;15.498;2024-02-15T08:00:57;13.00;;;4.50;;
57441;SDS011;43284;47.042;15.498;2024-02-15T08:03:24;11.18;;;3.13;;
57441;SDS011;43284;47.042;15.498;2024-02-15T08:05:51;12.00;;;3.25;;
57441;SDS011;43284;47.042;15.498;2024-02-15T08:08:17;15.07;;;5.07;;
57441;SDS011;43284;47.042;15.498;2024-02-15T08:10:43;16.70;;;4.85;;
57441;SDS011;43284;47.042;15.498;2024-02-15T08:13:10;15.68;;;5.32;;
57441;SDS011;43284;47.042;15.498;2024-02-15T08:15:35;11.15;;;5.22;;
57441;SDS011;43284;47.042;15.498;2024-02-15T08:18:01;10.15;;;4.00;;
57441;SDS011;43284;47.042;15.498;2024-02-15T08:20:30;12.75;;;5.28;;
57441;SDS011;43284;47.042;15.498;2024-02-15T08:22:56;19.95;;;6.72;;
57441;SDS011;43284;47.042;15.498;2024-02-15T08:25:24;15.23;;;5.50;;
57441;SDS011;43284;47.042;15.498;2024-02-15T08:27:50;14.73;;;4.32;;
57441;SDS011;43284;47.042;15.498;2024-02-15T08:30:16;17.90;;;5.25;;
57441;SDS011;43284;47.042;15.498;2024-02-15T08:32:42;20.70;;;6.15;;
57441;SDS011;43284;47.042;15.498;2024-02-15T08:35:08;15.25;;;6.25;;
57441;SDS011;43284;47.042;15.498;2024-02-15T08:37:35;12.05;;;5.40;;
57441;SDS011;43284;47.042;15.498;2024-02-15T08:40:03;14.75;;;5.53;;
57441;SDS011;43284;47.042;15.498;2024-02-15T08:42:35;13.68;;;5.68;;
57441;SDS011;43284;47.042;15.498;2024-02-15T08:45:07;19.73;;;6.22;;
57441;SDS011;43284;47.042;15.498;2024-02-15T08:47:41;16.05;;;5.88;;
57441;SDS011;43284;47.042;15.498;2024-02-15T08:50:07;16.13;;;6.38;;
57441;SDS011;43284;47.042;15.498;2024-02-15T08:52:40;16.38;;;6.60;;
57441;SDS011;43284;47.042;15.498;2024-02-15T08:55:09;19.70;;;6.55;;
57441;SDS011;43284;47.042;15.498;2024-02-15T08:57:39;24.50;;;6.95;;
57441;SDS011;43284;47.042;15.498;2024-02-15T09:00:06;17.25;;;5.47;;
57441;SDS011;43284;47.042;15.498;2024-02-15T09:02:39;18.17;;;5.00;;
57441;SDS011;43284;47.042;15.498;2024-02-15T09:05:05;13.02;;;5.13;;
57441;SDS011;43284;47.042;15.498;2024-02-15T09:07:31;13.77;;;5.10;;
57441;SDS011;43284;47.042;15.498;2024-02-15T09:09:57;15.98;;;5.95;;
57441;SDS011;43284;47.042;15.498;2024-02-15T09:12:22;16.50;;;5.47;;
57441;SDS011;43284;47.042;15.498;2024-02-15T09:14:50;19.48;;;6.28;;
57441;SDS011;43284;47.042;15.498;2024-02-15T09:17:19;12.52;;;5.97;;
57441;SDS011;43284;47.042;15.498;2024-02-15T09:19:47;24.08;;;6.10;;
57441;SDS011;43284;47.042;15.498;2024-02-15T09:22:14;18.27;;;5.65;;
57441;SDS011;43284;47.042;15.498;2024-02-15T09:24:43;20.50;;;6.07;;
57441;SDS011;43284;47.042;15.498;2024-02-15T09:27:08;17.35;;;5.60;;
57441;SDS011;43284;47.042;15.498;2024-02-15T09:29:37;16.90;;;5.50;;
57441;SDS011;43284;47.042;15.498;2024-02-15T09:32:04;19.98;;;5.60;;
57441;SDS011;43284;47.042;15.498;2024-02-15T09:34:29;16.98;;;5.90;;
57441;SDS011;43284;47.042;15.498;2024-02-15T09:36:55;17.92;;;6.07;;
57441;SDS011;43284;47.042;15.498;2024-02-15T09:39:21;13.88;;;5.45;;
57441;SDS011;43284;47.042;15.498;2024-02-15T09:41:50;17.42;;;5.47;;
57441;SDS011;43284;47.042;15.498;2024-02-15T09:44:23;12.57;;;4.65;;
57441;SDS011;43284;47.042;15.498;2024-02-15T09:46:54;21.27;;;4.88;;
57441;SDS011;43284;47.042;15.498;2024-02-15T09:49:36;12.57;;;4.57;;
57441;SDS011;43284;47.042;15.498;2024-02-15T09:52:05;14.30;;;5.13;;
57441;SDS011;43284;47.042;15.498;2024-02-15T09:54:38;15.13;;;4.95;;
57441;SDS011;43284;47.042;15.498;2024-02-15T09:57:08;12.90;;;5.15;;
57441;SDS011;43284;47.042;15.498;2024-02-15T09:59:35;14.63;;;5.47;;
57441;SDS011;43284;47.042;15.498;2024-02-15T10:02:01;12.65;;;5.15;;
57441;SDS011;43284;47.042;15.498;2024-02-15T10:04:27;15.57;;;5.40;;
57441;SDS011;43284;47.042;15.498;2024-02-15T10:06:53;17.50;;;5.50;;
57441;SDS011;43284;47.042;15.498;2024-02-15T10:09:25;12.52;;;5.07;;
57441;SDS011;43284;47.042;15.498;2024-02-15T10:11:55;14.10;;;4.80;;
57441;SDS011;43284;47.042;15.498;2024-02-15T10:14:22;14.88;;;5.57;;
57441;SDS011;43284;47.042;15.498;2024-02-15T10:16:55;17.02;;;5.93;;
57441;SDS011;43284;47.042;15.498;2024-02-15T10:19:22;14.10;;;5.28;;
57441;SDS011;43284;47.042;15.498;2024-02-15T10:21:52;17.83;;;5.15;;
57441;SDS011;43284;47.042;15.498;2024-02-15T10:24:22;12.05;;;4.78;;
57441;SDS011;43284;47.042;15.498;2024-02-15T10:26:49;8.93;;;5.28;;
57441;SDS011;43284;47.042;15.498;2024-02-15T10:29:16;11.75;;;4.88;;
57441;SDS011;43284;47.042;15.498;2024-02-15T10:31:58;16.75;;;5.45;;
57441;SDS011;43284;47.042;15.498;2024-02-15T10:34:24;14.60;;;4.85;;
57441;SDS011;43284;47.042;15.498;2024-02-15T10:37:14;11.27;;;4.57;;
57441;SDS011;43284;47.042;15.498;2024-02-15T10:39:44;9.45;;;4.18;;
57441;SDS011;43284;47.042;15.498;2024-02-15T10:42:09;10.23;;;4.30;;
57441;SDS011;43284;47.042;15.498;2024-02-15T10:44:37;11.43;;;4.40;;
57441;SDS011;43284;47.042;15.498;2024-02-15T10:47:04;7.63;;;3.70;;
57441;SDS011;43284;47.042;15.498;2024-02-15T10:49:32;8.85;;;3.63;;
57441;SDS011;43284;47.042;15.498;2024-02-15T10:52:00;14.63;;;4.57;;
57441;SDS011;43284;47.042;15.498;2024-02-15T10:54:50;16.98;;;4.65;;
57441;SDS011;43284;47.042;15.498;2024-02-15T10:57:21;13.18;;;4.68;;
57441;SDS011;43284;47.042;15.498;2024-02-15T10:59:55;14.15;;;4.30;;
57441;SDS011;43284;47.042;15.498;2024-02-15T11:05:05;12.57;;;4.75;;
57441;SDS011;43284;47.042;15.498;2024-02-15T11:07:39;13.32;;;5.32;;
57441;SDS011;43284;47.042;15.498;2024-02-15T11:10:08;14.27;;;5.13;;
57441;SDS011;43284;47.042;15.498;2024-02-15T11:12:35;16.70;;;5.20;;
57441;SDS011;43284;47.042;15.498;2024-02-15T11:15:02;19.95;;;5.43;;
57441;SDS011;43284;47.042;15.498;2024-02-15T11:25:39;10.48;;;4.03;;
57441;SDS011;43284;47.042;15.498;2024-02-15T11:33:24;15.13;;;4.22;;
57441;SDS011;43284;47.042;15.498;2024-02-15T11:36:06;15.43;;;4.18;;
57441;SDS011;43284;47.042;15.498;2024-02-15T11:38:36;9.10;;;3.55;;
57441;SDS011;43284;47.042;15.498;2024-02-15T11:41:05;13.07;;;3.70;;
57441;SDS011;43284;47.042;15.498;2024-02-15T11:46:17;9.45;;;3.25;;
57441;SDS011;43284;47.042;15.498;2024-02-15T11:48:47;7.65;;;3.38;;
57441;SDS011;43284;47.042;15.498;2024-02-15T11:51:26;7.70;;;3.50;;
57441;SDS011;43284;47.042;15.498;2024-02-15T11:54:01;9.88;;;3.70;;
57441;SDS011;43284;47.042;15.498;2024-02-15T11:56:52;12.70;;;3.33;;
57441;SDS011;43284;47.042;15.498;2024-02-15T11:59:29;6.78;;;3.42;;
57441;SDS011;43284;47.042;15.498;2024-02-15T12:02:07;9.90;;;3.60;;
57441;SDS011;43284;47.042;15.498;2024-02-15T12:04:52;8.85;;;3.20;;
57441;SDS011;43284;47.042;15.498;2024-02-15T12:07:36;11.25;;;3.25;;
57441;SDS011;43284;47.042;15.498;2024-02-15T12:10:20;9.00;;;3.47;;
57441;SDS011;43284;47.042;15.498;2024-02-15T12:13:04;7.85;;;3.70;;
57441;SDS011;43284;47.042;15.498;2024-02-15T12:15:58;10.32;;;3.40;;
57441;SDS011;43284;47.042;15.498;2024-02-15T12:18:43;10.73;;;4.47;;
57441;SDS011;43284;47.042;15.498;2024-02-15T12:21:10;8.88;;;3.15;;
57441;SDS011;43284;47.042;15.498;2024-02-15T12:23:41;6.95;;;3.55;;
57441;SDS011;43284;47.042;15.498;2024-02-15T12:26:07;8.52;;;2.88;;
57441;SDS011;43284;47.042;15.498;2024-02-15T12:28:33;6.35;;;3.10;;
57441;SDS011;43284;47.042;15.498;2024-02-15T12:31:02;16.40;;;3.40;;
57441;SDS011;43284;47.042;15.498;2024-02-15T12:33:27;12.10;;;3.42;;
57441;SDS011;43284;47.042;15.498;2024-02-15T12:36:03;7.57;;;2.80;;
57441;SDS011;43284;47.042;15.498;2024-02-15T12:38:33;6.55;;;2.63;;
57441;SDS011;43284;47.042;15.498;2024-02-15T12:41:03;7.68;;;3.13;;
57441;SDS011;43284;47.042;15.498;2024-02-15T12:43:41;7.20;;;2.67;;
57441;SDS011;43284;47.042;15.498;2024-02-15T12:46:07;6.38;;;2.72;;
57441;SDS011;43284;47.042;15.498;2024-02-15T12:48:33;5.85;;;2.90;;
57441;SDS011;43284;47.042;15.498;2024-02-15T12:51:12;6.50;;;2.72;;
57441;SDS011;43284;47.042;15.498;2024-02-15T12:53:40;10.00;;;2.80;;
57441;SDS011;43284;47.042;15.498;2024-02-15T12:56:08;8.48;;;2.42;;
57441;SDS011;43284;47.042;15.498;2024-02-15T12:58:34;6.70;;;2.80;;
57441;SDS011;43284;47.042;15.498;2024-02-15T13:01:00;8.25;;;2.50;;
57441;SDS011;43284;47.042;15.498;2024-02-15T13:03:27;7.22;;;2.70;;
57441;SDS011;43284;47.042;15.498;2024-02-15T13:05:53;8.45;;;2.58;;
57441;SDS011;43284;47.042;15.498;2024-02-15T13:08:19;6.32;;;2.08;;
57441;SDS011;43284;47.042;15.498;2024-02-15T13:10:45;5.45;;;2.33;;
57441;SDS011;43284;47.042;15.498;2024-02-15T13:13:11;3.55;;;1.80;;
57441;SDS011;43284;47.042;15.498;2024-02-15T13:15:39;5.03;;;2.30;;
57441;SDS011;43284;47.042;15.498;2024-02-15T13:18:05;3.90;;;1.63;;
57441;SDS011;43284;47.042;15.498;2024-02-15T13:20:31;5.10;;;2.28;;
57441;SDS011;43284;47.042;15.498;2024-02-15T13:23:01;3.92;;;1.98;;
57441;SDS011;43284;47.042;15.498;2024-02-15T13:25:36;6.90;;;1.92;;
57441;SDS011;43284;47.042;15.498;2024-02-15T13:28:04;3.88;;;1.75;;
57441;SDS011;43284;47.042;15.498;2024-02-15T13:30:30;6.00;;;2.08;;
57441;SDS011;43284;47.042;15.498;2024-02-15T13:32:56;6.82;;;1.80;;
57441;SDS011;43284;47.042;15.498;2024-02-15T13:35:21;6.78;;;2.72;;
57441;SDS011;43284;47.042;15.498;2024-02-15T13:40:23;3.67;;;1.63;;
57441;SDS011;43284;47.042;15.498;2024-02-15T13:42:50;8.73;;;1.92;;
57441;SDS011;43284;47.042;15.498;2024-02-15T13:45:38;4.68;;;1.65;;
57441;SDS011;43284;47.042;15.498;2024-02-15T13:48:04;6.47;;;2.13;;
57441;SDS011;43284;47.042;15.498;2024-02-15T13:50:34;5.43;;;1.98;;
57441;SDS011;43284;47.042;15.498;2024-02-15T13:53:00;3.30;;;1.85;;
57441;SDS011;43284;47.042;15.498;2024-02-15T13:55:27;7.57;;;1.83;;
57441;SDS011;43284;47.042;15.498;2024-02-15T13:57:53;6.53;;;1.60;;
57441;SDS011;43284;47.042;15.498;2024-02-15T14:00:21;4.65;;;1.50;;
57441;SDS011;43284;47.042;15.498;2024-02-15T14:02:51;7.13;;;1.90;;
57441;SDS011;43284;47.042;15.498;2024-02-15T14:05:25;3.37;;;1.50;;
57441;SDS011;43284;47.042;15.498;2024-02-15T14:08:00;4.45;;;1.60;;
57441;SDS011;43284;47.042;15.498;2024-02-15T14:10:36;6.75;;;1.77;;
57441;SDS011;43284;47.042;15.498;2024-02-15T14:13:02;4.82;;;1.95;;
57441;SDS011;43284;47.042;15.498;2024-02-15T14:15:30;3.85;;;1.55;;
57441;SDS011;43284;47.042;15.498;2024-02-15T14:18:06;5.97;;;1.38;;
57441;SDS011;43284;47.042;15.498;2024-02-15T14:20:35;3.42;;;1.50;;
57441;SDS011;43284;47.042;15.498;2024-02-15T14:23:02;7.35;;;1.92;;
57441;SDS011;43284;47.042;15.498;2024-02-15T14:25:31;6.47;;;2.80;;
57441;SDS011;43284;47.042;15.498;2024-02-15T14:27:57;4.22;;;1.65;;
57441;SDS011;43284;47.042;15.498;2024-02-15T14:30:24;4.75;;;1.70;;
57441;SDS011;43284;47.042;15.498;2024-02-15T14:33:08;3.50;;;1.92;;
57441;SDS011;43284;47.042;15.498;2024-02-15T14:35:37;5.68;;;1.85;;
57441;SDS011;43284;47.042;15.498;2024-02-15T14:38:13;3.60;;;1.67;;
57441;SDS011;43284;47.042;15.498;2024-02-15T14:40:43;7.40;;;1.90;;
57441;SDS011;43284;47.042;15.498;2024-02-15T14:43:11;2.58;;;1.60;;
57441;SDS011;43284;47.042;15.498;2024-02-15T14:45:38;5.13;;;1.42;;
57441;SDS011;43284;47.042;15.498;2024-02-15T14:48:06;4.32;;;1.55;;
57441;SDS011;43284;47.042;15.498;2024-02-15T14:50:38;4.68;;;1.70;;
57441;SDS011;43284;47.042;15.498;2024-02-15T14:53:05;4.82;;;1.65;;
57441;SDS011;43284;47.042;15.498;2024-02-15T14:55:32;5.55;;;2.20;;
57441;SDS011;43284;47.042;15.498;2024-02-15T14:57:58;4.65;;;1.77;;
57441;SDS011;43284;47.042;15.498;2024-02-15T15:00:24;4.45;;;1.73;;
57441;SDS011;43284;47.042;15.498;2024-02-15T15:02:51;5.80;;;2.03;;
57441;SDS011;43284;47.042;15.498;2024-02-15T15:05:17;8.20;;;2.15;;